sensor_id;sensor_type;location;lat;lon;timestamp;temperature;humidity
65460;DHT22;52058;49.822;6.754;2022-07-24T00:01:49;19.92;65.65
65460;DHT22;52058;49.822;6.754;2022-07-24T00:04:15;19.99;65.23
65460;DHT22;52058;49.822;6.754;2022-07-24T00:06:40;20.02;65.31
65460;DHT22;52058;49.822;6.754;2022-07-24T00:09:06;19.98;64.51
65460;DHT22;52058;49.822;6.754;2022-07-24T00:11:32;19.87;64.74
65460;DHT22;52058;49.822;6.754;2022-07-24T00:13:57;19.87;64.56
65460;DHT22;52058;49.822;6.754;2022-07-24T00:16:23;19.71;64.92
65460;DHT22;52058;49.822;6.754;2022-07-24T00:18:48;19.77;64.95
65460;DHT22;52058;49.822;6.754;2022-07-24T00:21:14;19.74;65.16
65460;DHT22;52058;49.822;6.754;2022-07-24T00:23:39;19.64;65.40
65460;DHT22;52058;49.822;6.754;2022-07-24T00:26:05;19.60;65.46
65460;DHT22;52058;49.822;6.754;2022-07-24T00:28:30;19.49;65.74
65460;DHT22;52058;49.822;6.754;2022-07-24T00:30:56;19.47;65.75
65460;DHT22;52058;49.822;6.754;2022-07-24T00:33:21;19.37;65.90
65460;DHT22;52058;49.822;6.754;2022-07-24T00:35:47;19.30;66.02
65460;DHT22;52058;49.822;6.754;2022-07-24T00:38:12;19.24;66.27
65460;DHT22;52058;49.822;6.754;2022-07-24T00:40:37;19.16;66.51
65460;DHT22;52058;49.822;6.754;2022-07-24T00:43:03;19.22;66.39
65460;DHT22;52058;49.822;6.754;2022-07-24T00:45:29;19.24;66.30
65460;DHT22;52058;49.822;6.754;2022-07-24T00:47:55;19.22;66.35
65460;DHT22;52058;49.822;6.754;2022-07-24T00:50:21;19.23;66.35
65460;DHT22;52058;49.822;6.754;2022-07-24T00:52:47;19.09;66.72
65460;DHT22;52058;49.822;6.754;2022-07-24T00:55:12;19.15;66.62
65460;DHT22;52058;49.822;6.754;2022-07-24T00:57:38;19.08;66.72
65460;DHT22;52058;49.822;6.754;2022-07-24T01:00:06;19.06;66.77
65460;DHT22;52058;49.822;6.754;2022-07-24T01:02:32;19.01;66.90
65460;DHT22;52058;49.822;6.754;2022-07-24T01:04:57;18.96;66.84
65460;DHT22;52058;49.822;6.754;2022-07-24T01:07:23;18.91;67.02
65460;DHT22;52058;49.822;6.754;2022-07-24T01:09:49;18.89;67.12
65460;DHT22;52058;49.822;6.754;2022-07-24T01:12:14;18.91;67.10
65460;DHT22;52058;49.822;6.754;2022-07-24T01:14:39;18.89;67.15
65460;DHT22;52058;49.822;6.754;2022-07-24T01:17:05;18.89;67.07
65460;DHT22;52058;49.822;6.754;2022-07-24T01:19:30;18.82;67.23
65460;DHT22;52058;49.822;6.754;2022-07-24T01:21:55;18.76;67.28
65460;DHT22;52058;49.822;6.754;2022-07-24T01:24:21;18.81;67.26
65460;DHT22;52058;49.822;6.754;2022-07-24T01:26:47;18.79;67.24
65460;DHT22;52058;49.822;6.754;2022-07-24T01:29:14;18.78;67.29
65460;DHT22;52058;49.822;6.754;2022-07-24T01:31:40;18.72;67.29
65460;DHT22;52058;49.822;6.754;2022-07-24T01:34:05;18.65;67.38
65460;DHT22;52058;49.822;6.754;2022-07-24T01:36:31;18.47;67.71
65460;DHT22;52058;49.822;6.754;2022-07-24T01:38:56;18.52;67.82
65460;DHT22;52058;49.822;6.754;2022-07-24T01:41:22;18.55;67.82
65460;DHT22;52058;49.822;6.754;2022-07-24T01:43:47;18.57;67.80
65460;DHT22;52058;49.822;6.754;2022-07-24T01:46:12;18.50;67.97
65460;DHT22;52058;49.822;6.754;2022-07-24T01:48:39;18.44;67.96
65460;DHT22;52058;49.822;6.754;2022-07-24T01:51:05;18.40;68.03
65460;DHT22;52058;49.822;6.754;2022-07-24T01:53:30;18.38;68.02
65460;DHT22;52058;49.822;6.754;2022-07-24T01:55:56;18.33;68.11
65460;DHT22;52058;49.822;6.754;2022-07-24T01:58:22;18.33;68.21
65460;DHT22;52058;49.822;6.754;2022-07-24T02:00:47;18.23;68.40
65460;DHT22;52058;49.822;6.754;2022-07-24T02:03:12;18.20;68.41
65460;DHT22;52058;49.822;6.754;2022-07-24T02:05:38;18.27;68.34
65460;DHT22;52058;49.822;6.754;2022-07-24T02:08:03;18.23;68.42
65460;DHT22;52058;49.822;6.754;2022-07-24T02:10:35;18.18;68.33
65460;DHT22;52058;49.822;6.754;2022-07-24T02:13:01;18.13;68.31
65460;DHT22;52058;49.822;6.754;2022-07-24T02:15:27;18.00;68.57
65460;DHT22;52058;49.822;6.754;2022-07-24T02:17:57;17.97;68.87
65460;DHT22;52058;49.822;6.754;2022-07-24T02:20:22;17.97;68.89
65460;DHT22;52058;49.822;6.754;2022-07-24T02:22:48;17.89;68.98
65460;DHT22;52058;49.822;6.754;2022-07-24T02:25:14;17.89;68.98
65460;DHT22;52058;49.822;6.754;2022-07-24T02:27:39;17.87;69.02
65460;DHT22;52058;49.822;6.754;2022-07-24T02:30:07;17.85;69.02
65460;DHT22;52058;49.822;6.754;2022-07-24T02:32:33;17.81;69.17
65460;DHT22;52058;49.822;6.754;2022-07-24T02:34:58;17.79;69.23
65460;DHT22;52058;49.822;6.754;2022-07-24T02:37:24;17.75;69.17
65460;DHT22;52058;49.822;6.754;2022-07-24T02:39:49;17.78;69.26
65460;DHT22;52058;49.822;6.754;2022-07-24T02:42:14;17.76;69.23
65460;DHT22;52058;49.822;6.754;2022-07-24T02:44:40;17.75;69.32
65460;DHT22;52058;49.822;6.754;2022-07-24T02:47:05;17.72;69.24
65460;DHT22;52058;49.822;6.754;2022-07-24T02:49:30;17.68;69.37
65460;DHT22;52058;49.822;6.754;2022-07-24T02:51:55;17.59;69.59
65460;DHT22;52058;49.822;6.754;2022-07-24T02:54:21;17.48;69.78
65460;DHT22;52058;49.822;6.754;2022-07-24T02:56:46;17.48;69.81
65460;DHT22;52058;49.822;6.754;2022-07-24T02:59:12;17.38;69.97
65460;DHT22;52058;49.822;6.754;2022-07-24T03:01:37;17.31;70.14
65460;DHT22;52058;49.822;6.754;2022-07-24T03:04:02;17.35;70.07
65460;DHT22;52058;49.822;6.754;2022-07-24T03:06:28;17.31;70.19
65460;DHT22;52058;49.822;6.754;2022-07-24T03:08:53;17.35;70.01
65460;DHT22;52058;49.822;6.754;2022-07-24T03:11:18;17.15;70.41
65460;DHT22;52058;49.822;6.754;2022-07-24T03:13:43;17.14;70.40
65460;DHT22;52058;49.822;6.754;2022-07-24T03:16:09;17.11;70.51
65460;DHT22;52058;49.822;6.754;2022-07-24T03:18:35;16.94;70.83
65460;DHT22;52058;49.822;6.754;2022-07-24T03:21:00;16.96;70.88
65460;DHT22;52058;49.822;6.754;2022-07-24T03:23:25;16.88;70.98
65460;DHT22;52058;49.822;6.754;2022-07-24T03:25:51;16.88;70.99
65460;DHT22;52058;49.822;6.754;2022-07-24T03:28:17;16.87;71.01
65460;DHT22;52058;49.822;6.754;2022-07-24T03:30:43;16.86;71.00
65460;DHT22;52058;49.822;6.754;2022-07-24T03:33:08;16.87;70.99
65460;DHT22;52058;49.822;6.754;2022-07-24T03:35:33;16.84;70.98
65460;DHT22;52058;49.822;6.754;2022-07-24T03:37:59;16.76;71.13
65460;DHT22;52058;49.822;6.754;2022-07-24T03:40:24;16.66;71.21
65460;DHT22;52058;49.822;6.754;2022-07-24T03:42:49;16.69;71.24
65460;DHT22;52058;49.822;6.754;2022-07-24T03:45:15;16.63;71.40
65460;DHT22;52058;49.822;6.754;2022-07-24T03:47:40;16.66;71.45
65460;DHT22;52058;49.822;6.754;2022-07-24T03:50:06;16.72;71.33
65460;DHT22;52058;49.822;6.754;2022-07-24T03:52:31;16.73;71.25
65460;DHT22;52058;49.822;6.754;2022-07-24T03:54:56;16.76;71.29
65460;DHT22;52058;49.822;6.754;2022-07-24T03:57:22;16.79;71.18
65460;DHT22;52058;49.822;6.754;2022-07-24T03:59:47;16.66;71.38
65460;DHT22;52058;49.822;6.754;2022-07-24T04:02:13;16.75;71.28
65460;DHT22;52058;49.822;6.754;2022-07-24T04:04:38;16.66;71.32
65460;DHT22;52058;49.822;6.754;2022-07-24T04:07:03;16.57;71.30
65460;DHT22;52058;49.822;6.754;2022-07-24T04:09:29;16.62;71.41
65460;DHT22;52058;49.822;6.754;2022-07-24T04:11:54;16.69;71.33
65460;DHT22;52058;49.822;6.754;2022-07-24T04:14:19;16.70;71.34
65460;DHT22;52058;49.822;6.754;2022-07-24T04:16:45;16.70;71.38
65460;DHT22;52058;49.822;6.754;2022-07-24T04:19:10;16.65;71.36
65460;DHT22;52058;49.822;6.754;2022-07-24T04:21:35;16.66;71.40
65460;DHT22;52058;49.822;6.754;2022-07-24T04:24:01;16.63;71.24
65460;DHT22;52058;49.822;6.754;2022-07-24T04:26:26;16.65;71.36
65460;DHT22;52058;49.822;6.754;2022-07-24T04:28:53;16.60;71.38
65460;DHT22;52058;49.822;6.754;2022-07-24T04:31:18;16.49;71.81
65460;DHT22;52058;49.822;6.754;2022-07-24T04:33:43;16.63;71.56
65460;DHT22;52058;49.822;6.754;2022-07-24T04:36:08;16.73;71.47
65460;DHT22;52058;49.822;6.754;2022-07-24T04:38:34;16.70;71.58
65460;DHT22;52058;49.822;6.754;2022-07-24T04:41:00;16.69;71.69
65460;DHT22;52058;49.822;6.754;2022-07-24T04:43:25;16.65;71.62
65460;DHT22;52058;49.822;6.754;2022-07-24T04:45:51;16.75;71.42
65460;DHT22;52058;49.822;6.754;2022-07-24T04:48:16;16.75;71.35
65460;DHT22;52058;49.822;6.754;2022-07-24T04:50:41;16.52;71.71
65460;DHT22;52058;49.822;6.754;2022-07-24T04:53:06;16.67;71.67
65460;DHT22;52058;49.822;6.754;2022-07-24T04:55:32;16.72;71.53
65460;DHT22;52058;49.822;6.754;2022-07-24T04:57:57;16.75;71.50
65460;DHT22;52058;49.822;6.754;2022-07-24T05:00:22;16.80;71.32
65460;DHT22;52058;49.822;6.754;2022-07-24T05:02:48;16.93;71.19
65460;DHT22;52058;49.822;6.754;2022-07-24T05:05:13;16.97;71.23
65460;DHT22;52058;49.822;6.754;2022-07-24T05:07:38;17.15;70.98
65460;DHT22;52058;49.822;6.754;2022-07-24T05:10:05;17.23;70.73
65460;DHT22;52058;49.822;6.754;2022-07-24T05:12:30;17.34;70.65
65460;DHT22;52058;49.822;6.754;2022-07-24T05:14:55;17.39;70.64
65460;DHT22;52058;49.822;6.754;2022-07-24T05:17:21;17.46;70.47
65460;DHT22;52058;49.822;6.754;2022-07-24T05:19:46;17.48;70.70
65460;DHT22;52058;49.822;6.754;2022-07-24T05:22:11;17.46;70.77
65460;DHT22;52058;49.822;6.754;2022-07-24T05:24:37;17.59;70.44
65460;DHT22;52058;49.822;6.754;2022-07-24T05:27:02;17.45;70.75
65460;DHT22;52058;49.822;6.754;2022-07-24T05:29:28;17.39;71.04
65460;DHT22;52058;49.822;6.754;2022-07-24T05:31:53;17.24;71.45
65460;DHT22;52058;49.822;6.754;2022-07-24T05:34:20;17.17;71.67
65460;DHT22;52058;49.822;6.754;2022-07-24T05:36:45;17.14;72.12
65460;DHT22;52058;49.822;6.754;2022-07-24T05:39:11;17.34;71.99
65460;DHT22;52058;49.822;6.754;2022-07-24T05:41:36;17.21;72.02
65460;DHT22;52058;49.822;6.754;2022-07-24T05:44:01;17.61;71.42
65460;DHT22;52058;49.822;6.754;2022-07-24T05:46:27;17.49;71.62
65460;DHT22;52058;49.822;6.754;2022-07-24T05:48:52;17.63;71.67
65460;DHT22;52058;49.822;6.754;2022-07-24T05:51:17;17.71;71.54
65460;DHT22;52058;49.822;6.754;2022-07-24T05:53:43;17.75;71.72
65460;DHT22;52058;49.822;6.754;2022-07-24T05:56:08;17.76;71.57
65460;DHT22;52058;49.822;6.754;2022-07-24T05:58:34;18.29;70.51
65460;DHT22;52058;49.822;6.754;2022-07-24T06:01:00;18.37;70.40
65460;DHT22;52058;49.822;6.754;2022-07-24T06:03:26;18.65;69.80
65460;DHT22;52058;49.822;6.754;2022-07-24T06:05:51;18.81;69.38
65460;DHT22;52058;49.822;6.754;2022-07-24T06:08:17;19.19;68.72
65460;DHT22;52058;49.822;6.754;2022-07-24T06:10:42;19.75;67.74
65460;DHT22;52058;49.822;6.754;2022-07-24T06:13:07;19.91;67.41
65460;DHT22;52058;49.822;6.754;2022-07-24T06:15:33;20.07;66.94
65460;DHT22;52058;49.822;6.754;2022-07-24T06:17:58;20.07;66.67
65460;DHT22;52058;49.822;6.754;2022-07-24T06:20:24;20.38;66.06
65460;DHT22;52058;49.822;6.754;2022-07-24T06:22:49;21.59;63.58
65460;DHT22;52058;49.822;6.754;2022-07-24T06:25:15;23.61;58.17
65460;DHT22;52058;49.822;6.754;2022-07-24T06:27:42;25.44;52.87
65460;DHT22;52058;49.822;6.754;2022-07-24T06:30:16;26.19;50.73
65460;DHT22;52058;49.822;6.754;2022-07-24T06:32:42;23.47;56.57
65460;DHT22;52058;49.822;6.754;2022-07-24T06:35:07;22.79;58.46
65460;DHT22;52058;49.822;6.754;2022-07-24T06:37:32;22.33;59.97
65460;DHT22;52058;49.822;6.754;2022-07-24T06:39:58;22.95;58.51
65460;DHT22;52058;49.822;6.754;2022-07-24T06:42:23;22.34;59.68
65460;DHT22;52058;49.822;6.754;2022-07-24T06:44:49;21.76;61.80
65460;DHT22;52058;49.822;6.754;2022-07-24T06:47:14;21.82;61.45
65460;DHT22;52058;49.822;6.754;2022-07-24T06:49:39;23.88;56.67
65460;DHT22;52058;49.822;6.754;2022-07-24T06:52:05;23.45;56.97
65460;DHT22;52058;49.822;6.754;2022-07-24T06:54:30;23.30;57.58
65460;DHT22;52058;49.822;6.754;2022-07-24T06:56:55;22.96;58.35
65460;DHT22;52058;49.822;6.754;2022-07-24T06:59:21;22.84;59.10
65460;DHT22;52058;49.822;6.754;2022-07-24T07:01:46;24.26;55.76
65460;DHT22;52058;49.822;6.754;2022-07-24T07:04:12;23.11;57.47
65460;DHT22;52058;49.822;6.754;2022-07-24T07:06:37;23.11;58.61
65460;DHT22;52058;49.822;6.754;2022-07-24T07:09:02;24.04;55.79
65460;DHT22;52058;49.822;6.754;2022-07-24T07:11:28;24.43;54.50
65460;DHT22;52058;49.822;6.754;2022-07-24T07:13:53;25.00;53.81
65460;DHT22;52058;49.822;6.754;2022-07-24T07:16:18;24.79;54.16
65460;DHT22;52058;49.822;6.754;2022-07-24T07:18:43;24.42;54.44
65460;DHT22;52058;49.822;6.754;2022-07-24T07:21:09;24.14;55.25
65460;DHT22;52058;49.822;6.754;2022-07-24T07:23:34;23.57;56.60
65460;DHT22;52058;49.822;6.754;2022-07-24T07:25:59;23.51;57.18
65460;DHT22;52058;49.822;6.754;2022-07-24T07:28:25;24.82;53.57
65460;DHT22;52058;49.822;6.754;2022-07-24T07:30:50;23.81;55.38
65460;DHT22;52058;49.822;6.754;2022-07-24T07:33:15;23.36;57.04
65460;DHT22;52058;49.822;6.754;2022-07-24T07:35:41;23.43;57.09
65460;DHT22;52058;49.822;6.754;2022-07-24T07:38:06;24.39;55.38
65460;DHT22;52058;49.822;6.754;2022-07-24T07:40:31;26.44;50.22
65460;DHT22;52058;49.822;6.754;2022-07-24T07:42:57;25.89;50.79
65460;DHT22;52058;49.822;6.754;2022-07-24T07:45:22;27.33;48.13
65460;DHT22;52058;49.822;6.754;2022-07-24T07:47:47;26.54;49.61
65460;DHT22;52058;49.822;6.754;2022-07-24T07:50:13;26.96;49.24
65460;DHT22;52058;49.822;6.754;2022-07-24T07:52:39;28.89;45.10
65460;DHT22;52058;49.822;6.754;2022-07-24T07:55:05;28.67;45.60
65460;DHT22;52058;49.822;6.754;2022-07-24T07:57:30;30.24;42.95
65460;DHT22;52058;49.822;6.754;2022-07-24T07:59:56;34.83;35.45
65460;DHT22;52058;49.822;6.754;2022-07-24T08:02:21;35.82;33.35
65460;DHT22;52058;49.822;6.754;2022-07-24T08:04:47;39.06;30.49
65460;DHT22;52058;49.822;6.754;2022-07-24T08:07:12;40.75;27.62
65460;DHT22;52058;49.822;6.754;2022-07-24T08:09:37;40.97;27.20
65460;DHT22;52058;49.822;6.754;2022-07-24T08:12:04;42.43;25.69
65460;DHT22;52058;49.822;6.754;2022-07-24T08:14:30;43.54;25.05
65460;DHT22;52058;49.822;6.754;2022-07-24T08:16:55;43.57;25.54
65460;DHT22;52058;49.822;6.754;2022-07-24T08:19:21;45.22;23.53
65460;DHT22;52058;49.822;6.754;2022-07-24T08:21:46;43.50;24.60
65460;DHT22;52058;49.822;6.754;2022-07-24T08:24:12;43.90;24.26
65460;DHT22;52058;49.822;6.754;2022-07-24T08:26:37;43.57;24.51
65460;DHT22;52058;49.822;6.754;2022-07-24T08:29:03;45.49;23.02
65460;DHT22;52058;49.822;6.754;2022-07-24T08:31:29;45.06;23.33
65460;DHT22;52058;49.822;6.754;2022-07-24T08:33:54;45.60;23.06
65460;DHT22;52058;49.822;6.754;2022-07-24T08:36:19;45.26;22.85
65460;DHT22;52058;49.822;6.754;2022-07-24T08:38:45;45.65;22.22
65460;DHT22;52058;49.822;6.754;2022-07-24T08:41:12;43.30;23.69
65460;DHT22;52058;49.822;6.754;2022-07-24T08:43:37;43.11;24.10
65460;DHT22;52058;49.822;6.754;2022-07-24T08:46:03;40.76;26.39
65460;DHT22;52058;49.822;6.754;2022-07-24T08:48:30;44.52;23.40
65460;DHT22;52058;49.822;6.754;2022-07-24T08:50:58;46.07;22.68
65460;DHT22;52058;49.822;6.754;2022-07-24T08:53:23;45.84;22.90
65460;DHT22;52058;49.822;6.754;2022-07-24T08:55:49;44.80;23.03
65460;DHT22;52058;49.822;6.754;2022-07-24T08:58:15;45.34;23.09
65460;DHT22;52058;49.822;6.754;2022-07-24T09:00:41;45.41;22.74
65460;DHT22;52058;49.822;6.754;2022-07-24T09:03:07;45.50;22.86
65460;DHT22;52058;49.822;6.754;2022-07-24T09:05:32;43.39;25.21
65460;DHT22;52058;49.822;6.754;2022-07-24T09:08:10;45.30;23.62
65460;DHT22;52058;49.822;6.754;2022-07-24T09:10:36;46.51;22.41
65460;DHT22;52058;49.822;6.754;2022-07-24T09:13:13;45.13;23.64
65460;DHT22;52058;49.822;6.754;2022-07-24T09:15:44;42.64;25.57
65460;DHT22;52058;49.822;6.754;2022-07-24T09:18:31;43.43;24.77
65460;DHT22;52058;49.822;6.754;2022-07-24T09:20:58;42.15;25.39
65460;DHT22;52058;49.822;6.754;2022-07-24T09:23:23;46.45;22.82
65460;DHT22;52058;49.822;6.754;2022-07-24T09:25:53;47.02;22.14
65460;DHT22;52058;49.822;6.754;2022-07-24T09:28:19;45.99;22.76
65460;DHT22;52058;49.822;6.754;2022-07-24T09:30:46;46.40;22.87
65460;DHT22;52058;49.822;6.754;2022-07-24T09:35:43;47.38;21.46
65460;DHT22;52058;49.822;6.754;2022-07-24T09:38:17;48.04;20.53
65460;DHT22;52058;49.822;6.754;2022-07-24T09:40:46;47.58;21.36
65460;DHT22;52058;49.822;6.754;2022-07-24T09:46:07;48.53;20.83
65460;DHT22;52058;49.822;6.754;2022-07-24T09:48:40;47.95;21.73
65460;DHT22;52058;49.822;6.754;2022-07-24T09:51:16;49.99;20.09
65460;DHT22;52058;49.822;6.754;2022-07-24T09:53:44;49.13;20.67
65460;DHT22;52058;49.822;6.754;2022-07-24T09:56:15;48.22;20.95
65460;DHT22;52058;49.822;6.754;2022-07-24T09:58:54;49.68;20.02
65460;DHT22;52058;49.822;6.754;2022-07-24T10:01:21;48.18;21.21
65460;DHT22;52058;49.822;6.754;2022-07-24T10:03:48;49.19;20.58
65460;DHT22;52058;49.822;6.754;2022-07-24T10:06:16;45.97;22.33
65460;DHT22;52058;49.822;6.754;2022-07-24T10:08:44;44.42;23.46
65460;DHT22;52058;49.822;6.754;2022-07-24T10:11:10;44.54;23.30
65460;DHT22;52058;49.822;6.754;2022-07-24T10:13:36;43.18;24.53
65460;DHT22;52058;49.822;6.754;2022-07-24T10:18:49;47.27;21.84
65460;DHT22;52058;49.822;6.754;2022-07-24T10:21:20;49.99;20.21
65460;DHT22;52058;49.822;6.754;2022-07-24T10:24:05;48.32;20.87
65460;DHT22;52058;49.822;6.754;2022-07-24T10:26:45;50.67;19.33
65460;DHT22;52058;49.822;6.754;2022-07-24T10:29:12;50.20;19.53
65460;DHT22;52058;49.822;6.754;2022-07-24T10:31:39;49.01;19.70
65460;DHT22;52058;49.822;6.754;2022-07-24T10:34:11;47.26;21.52
65460;DHT22;52058;49.822;6.754;2022-07-24T10:36:44;47.62;21.11
65460;DHT22;52058;49.822;6.754;2022-07-24T10:39:20;47.33;21.48
65460;DHT22;52058;49.822;6.754;2022-07-24T10:42:03;47.47;21.30
65460;DHT22;52058;49.822;6.754;2022-07-24T10:44:29;46.31;21.56
65460;DHT22;52058;49.822;6.754;2022-07-24T10:47:00;47.27;21.17
65460;DHT22;52058;49.822;6.754;2022-07-24T10:52:22;46.45;21.91
65460;DHT22;52058;49.822;6.754;2022-07-24T10:54:48;47.41;20.96
65460;DHT22;52058;49.822;6.754;2022-07-24T10:57:14;48.19;20.16
65460;DHT22;52058;49.822;6.754;2022-07-24T10:59:39;47.35;20.74
65460;DHT22;52058;49.822;6.754;2022-07-24T11:02:24;44.79;21.55
65460;DHT22;52058;49.822;6.754;2022-07-24T11:05:32;46.56;21.16
65460;DHT22;52058;49.822;6.754;2022-07-24T11:08:12;47.23;20.72
65460;DHT22;52058;49.822;6.754;2022-07-24T11:10:45;45.94;21.74
65460;DHT22;52058;49.822;6.754;2022-07-24T11:18:35;41.68;23.96
65460;DHT22;52058;49.822;6.754;2022-07-24T11:21:01;46.89;20.46
65460;DHT22;52058;49.822;6.754;2022-07-24T11:23:27;44.69;22.00
65460;DHT22;52058;49.822;6.754;2022-07-24T11:29:14;43.81;22.60
65460;DHT22;52058;49.822;6.754;2022-07-24T11:31:44;41.96;24.21
65460;DHT22;52058;49.822;6.754;2022-07-24T11:34:09;42.36;24.14
65460;DHT22;52058;49.822;6.754;2022-07-24T11:36:36;44.15;21.97
65460;DHT22;52058;49.822;6.754;2022-07-24T11:39:03;43.09;23.73
65460;DHT22;52058;49.822;6.754;2022-07-24T11:41:43;40.29;25.59
65460;DHT22;52058;49.822;6.754;2022-07-24T11:44:09;39.95;24.89
65460;DHT22;52058;49.822;6.754;2022-07-24T11:46:35;39.06;25.86
65460;DHT22;52058;49.822;6.754;2022-07-24T11:49:03;38.59;25.63
65460;DHT22;52058;49.822;6.754;2022-07-24T11:51:28;37.59;26.15
65460;DHT22;52058;49.822;6.754;2022-07-24T11:53:54;37.50;27.00
65460;DHT22;52058;49.822;6.754;2022-07-24T11:56:20;37.42;27.08
65460;DHT22;52058;49.822;6.754;2022-07-24T11:58:46;36.30;27.52
65460;DHT22;52058;49.822;6.754;2022-07-24T12:01:21;35.83;27.37
65460;DHT22;52058;49.822;6.754;2022-07-24T12:03:52;35.46;28.39
65460;DHT22;52058;49.822;6.754;2022-07-24T12:06:18;35.35;28.76
65460;DHT22;52058;49.822;6.754;2022-07-24T12:08:44;33.95;30.07
65460;DHT22;52058;49.822;6.754;2022-07-24T12:11:09;34.18;30.94
65460;DHT22;52058;49.822;6.754;2022-07-24T12:13:40;33.65;32.09
65460;DHT22;52058;49.822;6.754;2022-07-24T12:16:07;33.87;30.61
65460;DHT22;52058;49.822;6.754;2022-07-24T12:18:32;33.78;29.64
65460;DHT22;52058;49.822;6.754;2022-07-24T12:21:00;33.97;30.56
65460;DHT22;52058;49.822;6.754;2022-07-24T12:23:26;32.95;31.37
65460;DHT22;52058;49.822;6.754;2022-07-24T12:25:54;33.23;31.59
65460;DHT22;52058;49.822;6.754;2022-07-24T12:28:20;32.86;32.00
65460;DHT22;52058;49.822;6.754;2022-07-24T12:30:53;33.04;33.30
65460;DHT22;52058;49.822;6.754;2022-07-24T12:36:02;33.16;32.62
65460;DHT22;52058;49.822;6.754;2022-07-24T12:38:35;33.39;33.21
65460;DHT22;52058;49.822;6.754;2022-07-24T12:43:30;33.77;33.13
65460;DHT22;52058;49.822;6.754;2022-07-24T12:46:09;33.50;33.14
65460;DHT22;52058;49.822;6.754;2022-07-24T12:48:35;33.60;32.64
65460;DHT22;52058;49.822;6.754;2022-07-24T12:51:11;32.96;32.83
65460;DHT22;52058;49.822;6.754;2022-07-24T12:53:41;32.79;32.62
65460;DHT22;52058;49.822;6.754;2022-07-24T12:56:13;33.00;32.94
65460;DHT22;52058;49.822;6.754;2022-07-24T12:58:59;33.14;32.96
65460;DHT22;52058;49.822;6.754;2022-07-24T13:01:29;33.31;33.25
65460;DHT22;52058;49.822;6.754;2022-07-24T13:04:09;32.72;33.46
65460;DHT22;52058;49.822;6.754;2022-07-24T13:06:38;32.49;33.88
65460;DHT22;52058;49.822;6.754;2022-07-24T13:09:05;32.58;33.71
65460;DHT22;52058;49.822;6.754;2022-07-24T13:11:30;32.56;33.36
65460;DHT22;52058;49.822;6.754;2022-07-24T13:13:56;32.62;34.56
65460;DHT22;52058;49.822;6.754;2022-07-24T13:16:21;33.07;33.57
65460;DHT22;52058;49.822;6.754;2022-07-24T13:18:49;32.62;33.28
65460;DHT22;52058;49.822;6.754;2022-07-24T13:21:16;32.39;33.50
65460;DHT22;52058;49.822;6.754;2022-07-24T13:23:43;32.52;34.23
65460;DHT22;52058;49.822;6.754;2022-07-24T13:26:08;32.64;33.55
65460;DHT22;52058;49.822;6.754;2022-07-24T13:28:34;32.66;34.15
65460;DHT22;52058;49.822;6.754;2022-07-24T13:30:59;32.68;33.39
65460;DHT22;52058;49.822;6.754;2022-07-24T13:33:24;32.86;33.29
65460;DHT22;52058;49.822;6.754;2022-07-24T13:35:49;32.56;34.13
65460;DHT22;52058;49.822;6.754;2022-07-24T13:38:15;32.58;32.99
65460;DHT22;52058;49.822;6.754;2022-07-24T13:40:41;32.85;32.91
65460;DHT22;52058;49.822;6.754;2022-07-24T13:43:06;32.85;32.78
65460;DHT22;52058;49.822;6.754;2022-07-24T13:45:31;32.96;32.74
65460;DHT22;52058;49.822;6.754;2022-07-24T13:47:57;33.02;32.65
65460;DHT22;52058;49.822;6.754;2022-07-24T13:50:22;32.89;32.68
65460;DHT22;52058;49.822;6.754;2022-07-24T13:52:47;32.85;32.51
65460;DHT22;52058;49.822;6.754;2022-07-24T13:55:13;33.10;33.51
65460;DHT22;52058;49.822;6.754;2022-07-24T13:57:38;32.79;33.52
65460;DHT22;52058;49.822;6.754;2022-07-24T14:00:04;32.65;33.47
65460;DHT22;52058;49.822;6.754;2022-07-24T14:02:29;32.82;32.94
65460;DHT22;52058;49.822;6.754;2022-07-24T14:04:55;33.03;32.67
65460;DHT22;52058;49.822;6.754;2022-07-24T14:07:20;32.85;33.60
65460;DHT22;52058;49.822;6.754;2022-07-24T14:09:45;32.78;33.76
65460;DHT22;52058;49.822;6.754;2022-07-24T14:12:10;33.00;33.07
65460;DHT22;52058;49.822;6.754;2022-07-24T14:14:36;33.13;33.19
65460;DHT22;52058;49.822;6.754;2022-07-24T14:17:01;32.89;33.17
65460;DHT22;52058;49.822;6.754;2022-07-24T14:19:26;33.04;33.46
65460;DHT22;52058;49.822;6.754;2022-07-24T14:21:52;32.98;33.11
65460;DHT22;52058;49.822;6.754;2022-07-24T14:24:18;32.80;33.17
65460;DHT22;52058;49.822;6.754;2022-07-24T14:26:45;32.74;33.08
65460;DHT22;52058;49.822;6.754;2022-07-24T14:29:11;32.85;33.30
65460;DHT22;52058;49.822;6.754;2022-07-24T14:31:36;32.71;32.95
65460;DHT22;52058;49.822;6.754;2022-07-24T14:34:02;32.86;32.84
65460;DHT22;52058;49.822;6.754;2022-07-24T14:36:27;32.90;32.51
65460;DHT22;52058;49.822;6.754;2022-07-24T14:38:52;32.92;32.56
65460;DHT22;52058;49.822;6.754;2022-07-24T14:41:18;32.71;33.41
65460;DHT22;52058;49.822;6.754;2022-07-24T14:43:43;32.59;32.75
65460;DHT22;52058;49.822;6.754;2022-07-24T14:46:08;32.66;32.97
65460;DHT22;52058;49.822;6.754;2022-07-24T14:48:34;32.86;32.95
65460;DHT22;52058;49.822;6.754;2022-07-24T14:50:59;32.90;33.27
65460;DHT22;52058;49.822;6.754;2022-07-24T14:53:24;32.83;32.88
65460;DHT22;52058;49.822;6.754;2022-07-24T14:55:49;32.80;32.88
65460;DHT22;52058;49.822;6.754;2022-07-24T14:58:15;32.93;32.99
65460;DHT22;52058;49.822;6.754;2022-07-24T15:00:40;32.87;34.04
65460;DHT22;52058;49.822;6.754;2022-07-24T15:03:05;32.95;33.28
65460;DHT22;52058;49.822;6.754;2022-07-24T15:05:31;32.75;33.63
65460;DHT22;52058;49.822;6.754;2022-07-24T15:07:56;32.61;33.54
65460;DHT22;52058;49.822;6.754;2022-07-24T15:10:21;32.64;33.28
65460;DHT22;52058;49.822;6.754;2022-07-24T15:12:46;32.62;33.68
65460;DHT22;52058;49.822;6.754;2022-07-24T15:15:12;32.59;34.13
65460;DHT22;52058;49.822;6.754;2022-07-24T15:17:37;32.48;33.81
65460;DHT22;52058;49.822;6.754;2022-07-24T15:20:03;32.51;34.02
65460;DHT22;52058;49.822;6.754;2022-07-24T15:22:28;32.62;34.07
65460;DHT22;52058;49.822;6.754;2022-07-24T15:24:53;32.62;35.39
65460;DHT22;52058;49.822;6.754;2022-07-24T15:27:19;32.56;33.89
65460;DHT22;52058;49.822;6.754;2022-07-24T15:29:44;32.55;33.68
65460;DHT22;52058;49.822;6.754;2022-07-24T15:32:09;32.56;34.97
65460;DHT22;52058;49.822;6.754;2022-07-24T15:34:35;32.41;34.25
65460;DHT22;52058;49.822;6.754;2022-07-24T15:37:00;32.29;34.79
65460;DHT22;52058;49.822;6.754;2022-07-24T15:39:25;32.29;34.98
65460;DHT22;52058;49.822;6.754;2022-07-24T15:41:50;32.35;34.32
65460;DHT22;52058;49.822;6.754;2022-07-24T15:44:16;32.41;34.60
65460;DHT22;52058;49.822;6.754;2022-07-24T15:46:41;32.46;34.43
65460;DHT22;52058;49.822;6.754;2022-07-24T15:49:06;32.49;34.50
65460;DHT22;52058;49.822;6.754;2022-07-24T15:51:33;32.56;34.78